Latest Weather Observations for Newman Airport

IDW60801

Issued at 12:32 pm WST Tuesday 21 April 2015 (issued every 30 minutes, with the page automatically refreshed every 10 minutes)

About weather observations | Map of weather stations | Latest weather observations for WA | Other Formats
Station Details ID: 007176 Name: NEWMAN AERO Lat: -23.42 Lon: 119.80 Height: 524.0 m
Data from the previous 72 hours. | See also: Recent months at Newman Airport
Date/Time
WST
Temp
°C
App
Temp
°C
Dew
Point
Rel
Hum
%
Delta-T
°C
Wind Press
QNH
hPa
Press
MSL
hPa
Rain
since 9 am
mm
Dir
 
Spd
km/h
Gust
km/h
Spd
kts
Gust
kts
21/12:30pm 13.9 10.5 9.1 73 2.5 E 17 26 9 14 1018.9 1015.9 3.4
21/12:22pm 13.9 10.9 9.3 74 2.4 E 15 20 8 11 1019.0 1016.0 3.4
21/12:00pm 13.7 9.6 8.7 72 2.6 ENE 20 28 11 15 1019.6 1016.5 3.0
21/11:52am 13.7 9.2 8.7 72 2.6 ENE 22 28 12 15 1019.7 1016.6 3.0
21/11:30am 13.8 9.9 9.5 75 2.3 ENE 20 30 11 16 1019.9 1016.8 3.0
21/11:00am 13.6 10.3 9.5 76 2.1 E 17 24 9 13 1020.2 1017.2 2.6
21/10:30am 13.6 10.3 9.5 76 2.2 E 17 24 9 13 1020.5 1017.5 2.2
21/10:00am 13.5 10.9 9.4 76 2.1 ENE 13 20 7 11 1020.7 1017.7 1.4
21/09:30am 13.5 9.5 9.2 75 2.2 ENE 20 33 11 18 1020.9 1017.9 0.8
21/09:00am 13.7 10.0 9.4 75 2.2 E 19 28 10 15 1020.9 1017.9 9.4
21/08:30am 13.6 10.3 9.5 76 2.2 ENE 17 24 9 13 1020.7 1017.7 8.6
21/08:00am 13.6 11.1 9.6 77 2.1 ENE 13 15 7 8 1020.7 1017.7 8.0
21/07:30am 13.6 9.7 9.5 76 2.2 ENE 20 28 11 15 1020.7 1017.7 7.2
21/07:00am 13.1 10.9 9.4 78 1.9 E 11 13 6 7 1020.7 1017.7 6.4
21/06:30am 12.8 10.9 8.9 77 2.0 E 9 15 5 8 1020.7 1017.7 5.4
21/06:00am 12.9 9.4 8.8 76 2.1 E 17 24 9 13 1020.6 1017.6 4.4
21/05:30am 13.1 9.6 8.8 75 2.2 E 17 22 9 12 1020.5 1017.5 3.8
21/05:28am 13.1 9.6 8.6 74 2.3 E 17 22 9 12 1020.5 1017.5 3.8
21/05:00am 13.1 9.6 8.6 74 2.3 E 17 22 9 12 1020.5 1017.5 3.4
21/04:30am 13.4 10.3 8.7 73 2.4 E 15 20 8 11 1020.3 1017.3 2.4
21/04:00am 14.1 11.7 8.5 69 2.9 ENE 11 22 6 12 1020.2 1017.2 1.4
21/03:30am 14.2 12.3 9.0 71 2.7 ENE 9 11 5 6 1019.9 1016.8 1.0
21/03:00am 14.5 11.8 8.9 69 2.9 E 13 19 7 10 1019.5 1016.4 0.8
21/02:30am 14.4 12.2 9.2 71 2.7 ESE 11 15 6 8 1019.9 1016.8 0.6
21/02:00am 14.5 12.2 9.1 70 2.8 SE 11 15 6 8 1020.1 1017.1 0.6
21/01:30am 14.7 12.8 8.9 68 3.0 SE 9 11 5 6 1020.6 1017.6 0.4
21/01:00am 14.9 11.0 8.8 67 3.2 E 19 28 10 15 1020.3 1017.3 0.4
21/12:30am 15.5 11.4 8.7 64 3.5 E 20 30 11 16 1020.5 1017.5 0.2
21/12:00am 15.8 12.3 8.8 63 3.7 E 17 22 9 12 1020.9 1017.9 0.2
 
Date/Time
WST
Temp
°C
App
Temp
°C
Dew
Point
Rel
Hum
%
Delta-T
°C
Wind Press
QNH
hPa
Press
MSL
hPa
Rain
since 9 am
mm
Dir
 
Spd
km/h
Gust
km/h
Spd
kts
Gust
kts
20/11:30pm 16.2 14.3 9.2 63 3.7 ESE 9 17 5 9 1021.1 1018.1 0.0
20/11:00pm 15.9 13.8 9.6 66 3.4 ESE 11 17 6 9 1020.9 1017.9 0.0
20/10:30pm 15.7 12.4 9.6 67 3.3 E 17 26 9 14 1020.7 1017.7 0.0
20/10:00pm 16.0 11.2 9.0 63 3.7 E 24 37 13 20 1021.5 1018.4 0.0
20/09:30pm 16.6 12.5 8.6 59 4.2 E 20 28 11 15 1022.1 1019.1 0.0
20/09:00pm 16.9 12.3 8.3 57 4.5 E 22 32 12 17 1021.9 1018.9 0.0
20/08:30pm 17.3 12.8 8.4 56 4.7 E 22 35 12 19 1022.0 1019.0 0.0
20/08:00pm 17.8 13.2 8.1 53 5.1 ENE 22 35 12 19 1021.7 1018.6 0.0
20/07:30pm 18.3 13.7 8.0 51 5.4 ENE 22 33 12 18 1021.3 1018.3 0.0
20/07:00pm 18.5 13.8 7.9 50 5.5 E 22 32 12 17 1021.0 1018.0 0.0
20/06:30pm 18.8 14.6 8.2 50 5.6 E 20 28 11 15 1020.4 1017.4 0.0
20/06:00pm 18.6 14.6 8.3 51 5.4 E 19 28 10 15 1020.2 1017.2 0.0
20/05:30pm 18.7 14.5 8.4 51 5.5 E 20 28 11 15 1019.9 1016.8 0.0
20/05:00pm 18.7 14.2 8.4 51 5.5 E 22 35 12 19 1019.9 1016.8 0.0
20/04:30pm 18.7 14.6 8.7 52 5.3 E 20 33 11 18 1019.8 1016.7 0.0
20/04:00pm 18.7 14.7 8.4 51 5.5 E 19 28 10 15 1019.8 1016.7 0.0
20/03:30pm 18.9 15.0 8.6 51 5.5 ESE 19 30 10 16 1019.6 1016.5 0.0
20/03:00pm 19.1 14.9 8.4 50 5.7 E 20 28 11 15 1019.8 1016.7 0.0
20/02:30pm 18.8 14.9 8.5 51 5.5 ESE 19 28 10 15 1019.8 1016.7 0.0
20/02:00pm 18.8 13.9 8.5 51 5.5 E 24 32 13 17 1019.6 1016.5 0.0
20/01:30pm 18.8 14.7 8.7 52 5.4 ENE 20 28 11 15 1019.8 1016.7 0.0
20/01:00pm 18.9 14.4 8.6 51 5.5 E 22 30 12 16 1020.1 1017.1 0.0
20/12:30pm 18.2 14.6 8.5 53 5.1 E 17 26 9 14 1020.7 1017.7 0.0
20/12:00pm 17.9 14.1 9.0 56 4.7 E 19 30 10 16 1020.7 1017.7 0.0
20/11:30am 18.3 12.7 7.1 48 5.8 E 26 35 14 19 1021.5 1018.4 0.0
20/11:00am 18.3 13.0 6.8 47 5.9 ENE 24 35 13 19 1021.9 1018.9 0.0
20/10:30am 18.4 11.9 6.6 46 6.0 E 30 44 16 24 1022.0 1019.0 0.0
20/10:00am 18.0 12.3 6.5 47 5.8 E 26 35 14 19 1022.3 1019.3 0.0
20/09:30am 17.8 11.3 6.7 48 5.7 E 30 43 16 23 1022.5 1019.5 0.0
20/09:00am 17.4 12.5 6.9 50 5.3 ESE 22 33 12 18 1022.5 1019.5 1.0
20/08:30am 17.2 12.0 7.3 52 5.1 E 24 33 13 18 1023.0 1020.0 1.0
20/08:00am 17.0 12.6 7.4 53 4.9 E 20 32 11 17 1023.1 1020.1 1.0
20/07:30am 17.5 13.1 7.3 51 5.3 E 20 30 11 16 1022.6 1019.6 1.0
20/07:00am 17.3 13.5 7.6 53 5.0 E 17 22 9 12 1022.3 1019.3 1.0
20/06:30am 17.7 14.3 7.7 52 5.2 E 15 20 8 11 1022.5 1019.5 0.8
20/06:00am 18.2 12.9 7.0 48 5.7 E 24 32 13 17 1021.8 1018.8 0.8
20/05:30am 19.1 14.4 6.2 43 6.6 ESE 20 30 11 16 1021.7 1018.6 0.6
20/05:00am 18.9 16.4 6.7 45 6.3 ESE 9 24 5 13 1021.7 1018.6 0.6
20/04:30am 19.4 14.8 6.5 43 6.6 E 20 32 11 17 1020.7 1017.7 0.6
20/04:00am 19.4 15.3 6.2 42 6.7 ESE 17 26 9 14 1020.5 1017.5 0.6
20/03:30am 19.5 15.5 6.6 43 6.6 ESE 17 28 9 15 1020.5 1017.5 0.6
20/03:00am 19.7 16.4 6.4 42 6.8 ESE 13 20 7 11 1020.9 1017.9 0.6
20/02:30am 19.7 16.5 6.8 43 6.7 ESE 13 20 7 11 1021.1 1018.1 0.6
20/02:00am 19.9 15.3 6.6 42 6.8 E 20 30 11 16 1020.7 1017.7 0.6
20/01:30am 19.9 17.3 7.6 45 6.5 ESE 11 17 6 9 1021.3 1018.3 0.6
20/01:00am 19.7 17.6 8.1 47 6.1 SE 9 13 5 7 1021.9 1018.9 0.6
20/12:30am 20.3 17.3 7.7 44 6.7 E 13 19 7 10 1021.9 1018.9 0.6
20/12:00am 20.1 17.3 8.4 47 6.2 E 13 17 7 9 1021.9 1018.9 0.6
 
Date/Time
WST
Temp
°C
App
Temp
°C
Dew
Point
Rel
Hum
%
Delta-T
°C
Wind Press
QNH
hPa
Press
MSL
hPa
Rain
since 9 am
mm
Dir
 
Spd
km/h
Gust
km/h
Spd
kts
Gust
kts
19/11:30pm 19.2 18.4 11.0 59 4.6 ESE 6 9 3 5 1022.0 1019.0 0.6
19/11:00pm 18.8 17.7 11.9 64 3.9 E 9 11 5 6 1022.1 1019.1 0.6
19/10:30pm 18.4 17.9 12.6 69 3.3 E 7 9 4 5 1022.3 1019.3 0.6
19/10:00pm 18.3 17.8 12.7 70 3.2 SE 7 11 4 6 1022.3 1019.3 0.6
19/09:30pm 18.2 19.0 12.6 70 3.2 CALM 0 0 0 0 1022.5 1019.5 0.6
19/09:00pm 18.2 19.1 12.9 71 3.0 CALM 0 0 0 0 1022.7 1019.7 0.6
19/08:30pm 18.3 19.1 12.7 70 3.2 CALM 0 0 0 0 1022.6 1019.6 0.6
19/08:00pm 18.5 19.3 12.5 68 3.4 CALM 0 0 0 0 1022.7 1019.7 0.6
19/07:30pm 18.5 19.3 12.5 68 3.4 CALM 0 0 0 0 1022.9 1019.9 0.6
19/07:00pm 18.5 18.1 12.5 68 3.4 NE 6 9 3 5 1022.8 1019.8 0.6
19/06:30pm 18.6 17.7 12.6 68 3.4 ENE 9 13 5 7 1022.5 1019.5 0.6
19/06:00pm 18.6 17.3 12.6 68 3.4 ENE 11 19 6 10 1022.4 1019.4 0.6
19/05:30pm 19.1 17.0 12.4 65 3.8 E 15 24 8 13 1022.1 1019.1 0.6
19/05:00pm 19.4 18.1 12.4 64 4.0 E 11 17 6 9 1021.6 1018.5 0.6
19/04:30pm 19.7 17.5 12.0 61 4.4 E 15 20 8 11 1021.1 1018.1 0.6
19/04:00pm 19.8 17.5 11.8 60 4.5 E 15 20 8 11 1021.3 1018.3 0.6
19/03:30pm 19.7 17.6 12.5 63 4.1 E 15 24 8 13 1021.1 1018.1 0.6
19/03:00pm 19.6 17.6 12.6 64 4.0 ENE 15 20 8 11 1021.0 1018.0 0.6
19/02:30pm 18.7 16.3 12.5 67 3.5 E 17 24 9 13 1021.3 1018.3 0.6
19/02:00pm 18.1 15.7 12.8 71 3.0 ENE 17 24 9 13 1021.7 1018.6 0.6
19/01:30pm 17.5 14.6 12.8 74 2.7 NE 20 32 11 17 1021.9 1018.9 0.6
19/01:00pm 17.3 14.3 12.0 71 3.0 ENE 19 26 10 14 1022.4 1019.4 0.4
19/12:30pm 17.9 13.7 11.0 64 3.8 ENE 24 35 13 19 1022.6 1019.6 0.0
19/12:00pm 19.4 15.5 9.3 52 5.5 ENE 20 28 11 15 1022.8 1019.8 0.0
19/11:30am 19.7 14.3 8.1 47 6.2 E 26 33 14 18 1022.9 1019.9 0.0
19/11:00am 20.1 16.1 8.1 46 6.4 ENE 19 24 10 13 1023.1 1020.1 0.0
19/10:30am 18.9 14.9 9.1 53 5.3 E 20 28 11 15 1023.6 1020.6 0.0
19/10:00am 19.9 14.6 6.6 42 6.8 E 24 33 13 18 1023.6 1020.6 0.0
19/09:30am 21.1 15.8 5.1 35 8.1 E 22 32 12 17 1023.0 1020.0 0.0
19/09:00am 21.2 16.5 5.1 35 8.1 ESE 19 28 10 15 1022.6 1019.6 0.0
19/08:30am 20.6 16.5 4.6 35 8.0 ESE 15 24 8 13 1022.2 1019.2 0.0
19/08:00am 20.5 16.1 4.5 35 7.9 ESE 17 24 9 13 1022.0 1019.0 0.0
19/07:30am 20.3 15.8 4.4 35 7.9 ESE 17 24 9 13 1021.5 1018.4 0.0
19/07:00am 20.1 16.0 4.2 35 7.8 ESE 15 30 8 16 1020.7 1017.7 0.0
19/06:30am 20.1 15.5 3.8 34 8.0 E 17 24 9 13 1020.5 1017.5 0.0
19/06:00am 20.0 15.4 3.7 34 7.9 E 17 22 9 12 1020.1 1017.1 0.0
19/05:30am 20.1 15.5 3.8 34 8.0 E 17 28 9 15 1019.7 1016.6 0.0
19/05:00am 20.3 15.7 3.5 33 8.2 ESE 17 26 9 14 1019.5 1016.4 0.0
19/04:30am 20.4 15.4 3.6 33 8.2 ESE 19 35 10 19 1019.7 1016.6 0.0
19/04:00am 20.5 15.3 3.7 33 8.2 E 20 28 11 15 1019.8 1016.7 0.0
19/03:30am 20.8 15.2 3.5 32 8.5 E 22 33 12 18 1019.6 1016.5 0.0
19/03:00am 21.0 15.0 3.2 31 8.7 E 24 37 13 20 1019.3 1016.3 0.0
19/02:30am 21.1 15.9 3.3 31 8.7 E 20 28 11 15 1019.5 1016.4 0.0
19/02:00am 21.3 16.7 3.5 31 8.7 ESE 17 26 9 14 1019.7 1016.6 0.0
19/01:30am 21.5 16.8 3.2 30 9.0 ESE 17 26 9 14 1020.0 1017.0 0.0
19/01:00am 21.4 16.4 3.6 31 8.7 ESE 19 26 10 14 1019.9 1016.8 0.0
19/12:30am 21.8 16.6 3.5 30 9.0 ESE 20 28 11 15 1020.2 1017.2 0.0
19/12:00am 22.0 17.0 3.6 30 9.1 ESE 19 28 10 15 1020.3 1017.3 0.0
 
Date/Time
WST
Temp
°C
App
Temp
°C
Dew
Point
Rel
Hum
%
Delta-T
°C
Wind Press
QNH
hPa
Press
MSL
hPa
Rain
since 9 am
mm
Dir
 
Spd
km/h
Gust
km/h
Spd
kts
Gust
kts
18/11:30pm 22.0 17.9 4.1 31 8.9 ESE 15 22 8 12 1020.5 1017.5 0.0
18/11:00pm 21.4 18.8 6.1 37 7.9 SSE 9 11 5 6 1020.8 1017.8 0.0
18/10:30pm 21.6 20.1 6.7 38 7.8 SE 4 7 2 4 1021.0 1018.0 0.0
18/10:00pm 21.8 21.0 6.5 37 8.0 CALM 0 0 0 0 1021.2 1018.2 0.0
18/09:30pm 21.9 21.1 6.6 37 8.0 CALM 0 0 0 0 1021.5 1018.4 0.0
18/09:00pm 22.1 21.3 6.3 36 8.2 CALM 0 0 0 0 1021.3 1018.3 0.0
18/08:30pm 22.5 21.6 5.9 34 8.6 CALM 0 6 0 3 1021.2 1018.2 0.0
18/08:00pm 22.6 20.4 6.0 34 8.6 ESE 7 11 4 6 1021.1 1018.1 0.0
18/07:30pm 22.8 19.7 5.7 33 8.8 ESE 11 13 6 7 1020.7 1017.7 0.0
18/07:00pm 22.6 19.9 7.2 37 8.2 SE 11 15 6 8 1020.4 1017.4 0.0
18/06:30pm 22.5 20.0 6.7 36 8.3 SE 9 11 5 6 1020.1 1017.1 0.0
18/06:00pm 22.6 19.6 6.0 34 8.6 ESE 11 17 6 9 1019.9 1016.8 0.0
18/05:30pm 22.6 18.5 6.0 34 8.6 SE 17 24 9 13 1019.7 1016.6 0.0
18/05:00pm 22.7 18.2 6.9 36 8.3 SE 20 30 11 16 1019.6 1016.5 0.0
18/04:30pm 22.9 18.7 8.2 39 8.0 SE 20 30 11 16 1019.2 1016.2 0.0
18/04:00pm 23.7 19.8 8.5 38 8.3 SE 19 28 10 15 1018.9 1015.9 0.0
18/03:30pm 23.9 20.0 8.7 38 8.3 SSE 19 28 10 15 1019.0 1016.0 0.0
18/03:00pm 24.1 20.6 8.9 38 8.4 SE 17 33 9 18 1019.0 1016.0 0.0
18/02:30pm 24.4 21.8 9.2 38 8.4 E 13 20 7 11 1018.8 1015.8 0.0
18/02:00pm 24.3 21.4 9.5 39 8.2 SE 15 24 8 13 1018.9 1015.9 0.0
18/01:30pm 24.0 21.4 9.2 39 8.2 ESE 13 22 7 12 1019.0 1016.0 0.0
18/01:00pm 24.0 20.2 9.2 39 8.2 ESE 19 28 10 15 1019.2 1016.2 0.0

Other Formats:

Comma delimited format used in spreadsheet applications
http://www.bom.gov.au/fwo/IDW60801/IDW60801.94317.axf

JavaScript Object Notation format (JSON) in row-major order
http://www.bom.gov.au/fwo/IDW60801/IDW60801.94317.json